Aérodrome :
LOGIN :

S'inscrire | Disclaimer

   EN    FR    IT 

 










Légende :    VFR   VFR Marginal   IFR   IFR Intensif   IFR Très Intensif
Visi : 
Plafond : 
>= 8 km
>= 3000ft
5 à 8 km
1000 à 3000 ft
1500m à 5 km
500 à 1000 ft
800 à 1500m
200 à 500 ft
< 800m
< 200 ft
Symboles :   Orages  Brouillard  Fortes neiges  Fortes précipitations  Vent > 20 kt
SIGMETs :   Divers  Orages  Givrage  Turbulence  Onde Orograph.  Cendres Volcan.







- Altitude de l'aérodrome : 529 ft
- Code IATA : CHR
- Voir les cartes d'approche


LFLX - Chateauroux

DERNIER METAR :
  • 181430Z AUTO 11008KT CAVOK 29/16 Q1010 NOSIG

METARs EXPIRÉS :
  • 181400Z AUTO 10010KT CAVOK 29/17 Q1010 NOSIG
  • 181330Z AUTO 11008KT 070V130 CAVOK 28/17 Q1010 NOSIG
  • 181300Z AUTO 12008KT 100V170 CAVOK 28/17 Q1011 NOSIG
  • 181230Z AUTO 10009KT 060V120 CAVOK 27/17 Q1011 NOSIG
  • 181200Z AUTO 09008KT 060V120 CAVOK 26/17 Q1011 NOSIG

TAF TAF LFLX
Valide du 18 à 12h jusqu'au 19 à 18h UTC


181100Z 1812/1918 08006KT CAVOK
TEMPO 1821/1906 SHRA BKN050TCU
PROB40
TEMPO 1822/1903 VRB20G45KT 3000 TSRAGS BKN060CB
BECMG 1906/1908 24010KT
PROB30
TEMPO 1906/1912 -SHRA SCT050TCU
Pas de NOTAMs connus pour ce terrain.



MET'MAP, la Météo Aéronautique d'un coup d'oeil ! - Copyright ORBIFLY Décembre 2007 - Disclaimer

ORBIFLY MET'MAP TEAM :

Programmation & Développement : Alexandra Zaïnal
Conception & Développement : Baudouin d'Aumeries
Co-Programmation & Développement : Marc-Olivier Méhu
Soutien technique & logistique : Manuel Goepfert

Contact : metmap@orbifly.com




SOURCES & CREDITS :

   NOAA